sensor_id;sensor_type;location;lat;lon;timestamp;P1;durP1;ratioP1;P2;durP2;ratioP2
31974;SDS011;18500;43.618;1.474;2023-11-22T07:16:19;686.90;;;640.47;;
31974;SDS011;18500;43.618;1.474;2023-11-22T07:18:45;735.85;;;686.53;;
31974;SDS011;18500;43.618;1.474;2023-11-22T07:21:11;755.10;;;703.30;;
31974;SDS011;18500;43.618;1.474;2023-11-22T07:23:37;785.55;;;731.47;;
31974;SDS011;18500;43.618;1.474;2023-11-22T07:26:03;754.15;;;700.40;;
31974;SDS011;18500;43.618;1.474;2023-11-22T07:28:29;813.15;;;754.35;;
31974;SDS011;18500;43.618;1.474;2023-11-22T07:30:56;744.55;;;687.60;;
31974;SDS011;18500;43.618;1.474;2023-11-22T07:33:22;808.55;;;745.65;;
31974;SDS011;18500;43.618;1.474;2023-11-22T07:35:51;829.40;;;763.67;;
31974;SDS011;18500;43.618;1.474;2023-11-22T07:38:17;675.97;;;625.60;;
31974;SDS011;18500;43.618;1.474;2023-11-22T07:40:42;757.75;;;699.55;;
31974;SDS011;18500;43.618;1.474;2023-11-22T07:43:08;820.15;;;755.45;;
31974;SDS011;18500;43.618;1.474;2023-11-22T07:45:34;774.05;;;713.88;;
31974;SDS011;18500;43.618;1.474;2023-11-22T07:47:59;852.88;;;786.47;;
31974;SDS011;18500;43.618;1.474;2023-11-22T07:50:26;853.00;;;786.47;;
31974;SDS011;18500;43.618;1.474;2023-11-22T07:52:52;780.50;;;721.63;;
31974;SDS011;18500;43.618;1.474;2023-11-22T07:55:18;852.80;;;786.03;;
31974;SDS011;18500;43.618;1.474;2023-11-22T07:57:44;788.03;;;726.83;;
31974;SDS011;18500;43.618;1.474;2023-11-22T08:00:10;835.45;;;770.75;;
31974;SDS011;18500;43.618;1.474;2023-11-22T08:02:37;943.83;;;871.30;;
31974;SDS011;18500;43.618;1.474;2023-11-22T08:05:08;886.83;;;820.33;;
31974;SDS011;18500;43.618;1.474;2023-11-22T08:07:36;898.60;;;827.85;;
31974;SDS011;18500;43.618;1.474;2023-11-22T08:12:37;830.75;;;771.85;;
31974;SDS011;18500;43.618;1.474;2023-11-22T08:15:03;834.58;;;772.42;;
31974;SDS011;18500;43.618;1.474;2023-11-22T08:17:29;939.05;;;870.55;;
31974;SDS011;18500;43.618;1.474;2023-11-22T08:19:58;980.25;;;908.10;;
31974;SDS011;18500;43.618;1.474;2023-11-22T08:22:25;967.00;;;896.80;;
31974;SDS011;18500;43.618;1.474;2023-11-22T08:24:53;873.40;;;806.42;;
31974;SDS011;18500;43.618;1.474;2023-11-22T08:27:22;896.90;;;836.40;;
31974;SDS011;18500;43.618;1.474;2023-11-22T08:29:47;870.65;;;809.40;;
31974;SDS011;18500;43.618;1.474;2023-11-22T08:32:13;839.10;;;782.22;;
31974;SDS011;18500;43.618;1.474;2023-11-22T08:34:39;796.20;;;740.75;;
31974;SDS011;18500;43.618;1.474;2023-11-22T08:37:04;785.50;;;728.20;;
31974;SDS011;18500;43.618;1.474;2023-11-22T08:39:32;800.42;;;745.10;;
31974;SDS011;18500;43.618;1.474;2023-11-22T08:41:57;795.22;;;742.13;;
31974;SDS011;18500;43.618;1.474;2023-11-22T08:44:23;838.45;;;772.72;;
31974;SDS011;18500;43.618;1.474;2023-11-22T08:46:49;741.10;;;687.20;;
31974;SDS011;18500;43.618;1.474;2023-11-22T08:49:14;791.85;;;736.60;;
31974;SDS011;18500;43.618;1.474;2023-11-22T08:51:40;794.67;;;740.72;;
31974;SDS011;18500;43.618;1.474;2023-11-22T08:54:07;746.58;;;694.45;;
31974;SDS011;18500;43.618;1.474;2023-11-22T08:56:33;771.35;;;717.45;;
31974;SDS011;18500;43.618;1.474;2023-11-22T08:59:00;708.58;;;657.85;;
31974;SDS011;18500;43.618;1.474;2023-11-22T09:01:25;733.60;;;680.60;;
31974;SDS011;18500;43.618;1.474;2023-11-22T09:03:51;717.08;;;665.75;;
31974;SDS011;18500;43.618;1.474;2023-11-22T09:06:17;690.03;;;642.83;;
31974;SDS011;18500;43.618;1.474;2023-11-22T09:08:43;695.30;;;647.75;;
31974;SDS011;18500;43.618;1.474;2023-11-22T09:11:11;725.28;;;672.53;;
31974;SDS011;18500;43.618;1.474;2023-11-22T09:13:37;680.38;;;633.45;;
31974;SDS011;18500;43.618;1.474;2023-11-22T09:16:03;735.25;;;682.80;;
31974;SDS011;18500;43.618;1.474;2023-11-22T09:18:31;711.47;;;658.88;;
31974;SDS011;18500;43.618;1.474;2023-11-22T09:20:56;781.88;;;722.35;;
31974;SDS011;18500;43.618;1.474;2023-11-22T09:23:23;689.53;;;640.78;;
31974;SDS011;18500;43.618;1.474;2023-11-22T09:25:51;682.50;;;634.40;;
31974;SDS011;18500;43.618;1.474;2023-11-22T09:28:17;684.50;;;636.55;;
31974;SDS011;18500;43.618;1.474;2023-11-22T09:30:44;732.10;;;678.85;;
31974;SDS011;18500;43.618;1.474;2023-11-22T09:33:11;703.45;;;653.22;;
31974;SDS011;18500;43.618;1.474;2023-11-22T09:35:40;659.20;;;612.92;;
31974;SDS011;18500;43.618;1.474;2023-11-22T09:38:08;680.70;;;633.40;;
31974;SDS011;18500;43.618;1.474;2023-11-22T09:40:39;672.83;;;625.90;;
31974;SDS011;18500;43.618;1.474;2023-11-22T09:43:05;721.20;;;668.67;;
31974;SDS011;18500;43.618;1.474;2023-11-22T09:45:31;637.58;;;593.35;;
31974;SDS011;18500;43.618;1.474;2023-11-22T09:47:57;779.28;;;719.83;;
31974;SDS011;18500;43.618;1.474;2023-11-22T09:53:55;789.75;;;726.38;;
31974;SDS011;18500;43.618;1.474;2023-11-22T09:56:25;798.92;;;733.60;;
31974;SDS011;18500;43.618;1.474;2023-11-22T09:58:55;854.78;;;785.45;;
31974;SDS011;18500;43.618;1.474;2023-11-22T10:01:25;817.22;;;750.45;;
31974;SDS011;18500;43.618;1.474;2023-11-22T10:04:02;792.58;;;728.10;;
31974;SDS011;18500;43.618;1.474;2023-11-22T10:06:30;829.70;;;761.42;;
31974;SDS011;18500;43.618;1.474;2023-11-22T10:08:59;822.15;;;756.17;;
31974;SDS011;18500;43.618;1.474;2023-11-22T10:11:36;789.65;;;721.03;;
31974;SDS011;18500;43.618;1.474;2023-11-22T10:14:04;753.35;;;693.85;;
31974;SDS011;18500;43.618;1.474;2023-11-22T10:16:29;753.95;;;695.05;;
31974;SDS011;18500;43.618;1.474;2023-11-22T10:18:55;767.25;;;707.90;;
31974;SDS011;18500;43.618;1.474;2023-11-22T10:21:24;762.08;;;701.83;;
31974;SDS011;18500;43.618;1.474;2023-11-22T10:24:00;710.67;;;656.08;;
31974;SDS011;18500;43.618;1.474;2023-11-22T10:26:29;804.05;;;740.75;;
31974;SDS011;18500;43.618;1.474;2023-11-22T10:28:56;778.42;;;719.78;;
31974;SDS011;18500;43.618;1.474;2023-11-22T10:31:22;751.28;;;695.90;;
31974;SDS011;18500;43.618;1.474;2023-11-22T10:33:49;836.40;;;771.47;;
31974;SDS011;18500;43.618;1.474;2023-11-22T10:36:16;796.55;;;734.60;;
31974;SDS011;18500;43.618;1.474;2023-11-22T10:38:46;840.00;;;773.20;;
31974;SDS011;18500;43.618;1.474;2023-11-22T10:41:13;773.88;;;716.03;;
31974;SDS011;18500;43.618;1.474;2023-11-22T10:43:39;770.25;;;713.33;;
31974;SDS011;18500;43.618;1.474;2023-11-22T10:46:07;860.90;;;793.85;;
31974;SDS011;18500;43.618;1.474;2023-11-22T10:48:35;807.00;;;747.47;;
31974;SDS011;18500;43.618;1.474;2023-11-22T10:51:01;800.83;;;739.50;;
31974;SDS011;18500;43.618;1.474;2023-11-22T10:53:35;797.38;;;738.92;;
31974;SDS011;18500;43.618;1.474;2023-11-22T10:56:04;795.00;;;735.63;;
31974;SDS011;18500;43.618;1.474;2023-11-22T10:58:37;780.97;;;723.40;;
31974;SDS011;18500;43.618;1.474;2023-11-22T11:01:11;772.83;;;716.15;;
31974;SDS011;18500;43.618;1.474;2023-11-22T11:03:39;756.80;;;702.38;;
31974;SDS011;18500;43.618;1.474;2023-11-22T11:06:07;766.90;;;711.38;;
31974;SDS011;18500;43.618;1.474;2023-11-22T11:08:36;825.95;;;762.60;;
31974;SDS011;18500;43.618;1.474;2023-11-22T11:11:04;830.47;;;764.95;;
31974;SDS011;18500;43.618;1.474;2023-11-22T11:13:31;890.10;;;815.28;;
31974;SDS011;18500;43.618;1.474;2023-11-22T11:15:57;970.55;;;887.15;;
31974;SDS011;18500;43.618;1.474;2023-11-22T11:18:24;908.08;;;834.80;;
31974;SDS011;18500;43.618;1.474;2023-11-22T11:20:56;783.17;;;722.70;;
31974;SDS011;18500;43.618;1.474;2023-11-22T11:23:25;930.80;;;853.28;;
31974;SDS011;18500;43.618;1.474;2023-11-22T11:25:52;899.17;;;824.50;;
31974;SDS011;18500;43.618;1.474;2023-11-22T11:28:19;866.53;;;794.08;;
31974;SDS011;18500;43.618;1.474;2023-11-22T11:30:49;918.42;;;840.10;;
31974;SDS011;18500;43.618;1.474;2023-11-22T11:33:18;858.72;;;790.65;;
31974;SDS011;18500;43.618;1.474;2023-11-22T11:35:57;965.03;;;881.25;;
31974;SDS011;18500;43.618;1.474;2023-11-22T11:38:26;863.00;;;796.35;;
31974;SDS011;18500;43.618;1.474;2023-11-22T11:40:58;907.63;;;833.00;;
31974;SDS011;18500;43.618;1.474;2023-11-22T11:43:45;890.83;;;817.80;;
31974;SDS011;18500;43.618;1.474;2023-11-22T11:46:13;873.80;;;803.08;;
31974;SDS011;18500;43.618;1.474;2023-11-22T11:48:43;958.65;;;874.47;;
31974;SDS011;18500;43.618;1.474;2023-11-22T11:51:37;898.72;;;825.00;;
31974;SDS011;18500;43.618;1.474;2023-11-22T11:54:03;945.38;;;865.42;;
31974;SDS011;18500;43.618;1.474;2023-11-22T11:56:29;800.22;;;741.10;;
31974;SDS011;18500;43.618;1.474;2023-11-22T11:58:58;787.22;;;729.13;;
31974;SDS011;18500;43.618;1.474;2023-11-22T12:01:24;768.00;;;709.10;;
31974;SDS011;18500;43.618;1.474;2023-11-22T12:03:54;859.95;;;792.20;;
31974;SDS011;18500;43.618;1.474;2023-11-22T12:06:20;804.75;;;744.13;;
31974;SDS011;18500;43.618;1.474;2023-11-22T12:08:46;827.15;;;761.08;;
31974;SDS011;18500;43.618;1.474;2023-11-22T12:11:12;879.47;;;809.40;;
31974;SDS011;18500;43.618;1.474;2023-11-22T12:13:39;814.22;;;752.92;;
31974;SDS011;18500;43.618;1.474;2023-11-22T12:16:08;973.17;;;885.70;;
31974;SDS011;18500;43.618;1.474;2023-11-22T12:18:40;787.47;;;728.35;;
31974;SDS011;18500;43.618;1.474;2023-11-22T12:23:37;953.63;;;874.25;;
31974;SDS011;18500;43.618;1.474;2023-11-22T12:26:04;950.28;;;871.45;;
31974;SDS011;18500;43.618;1.474;2023-11-22T12:28:34;952.75;;;871.95;;
31974;SDS011;18500;43.618;1.474;2023-11-22T12:31:06;996.47;;;902.20;;
31974;SDS011;18500;43.618;1.474;2023-11-22T12:33:35;878.72;;;808.55;;
31974;SDS011;18500;43.618;1.474;2023-11-22T12:36:05;855.88;;;789.08;;
31974;SDS011;18500;43.618;1.474;2023-11-22T12:38:31;883.65;;;815.38;;
31974;SDS011;18500;43.618;1.474;2023-11-22T12:40:57;906.20;;;830.63;;
31974;SDS011;18500;43.618;1.474;2023-11-22T12:43:23;810.38;;;748.63;;
31974;SDS011;18500;43.618;1.474;2023-11-22T12:45:58;889.90;;;820.35;;
31974;SDS011;18500;43.618;1.474;2023-11-22T12:48:25;923.17;;;848.60;;
31974;SDS011;18500;43.618;1.474;2023-11-22T12:50:54;889.20;;;818.20;;
31974;SDS011;18500;43.618;1.474;2023-11-22T12:53:21;854.58;;;789.67;;
31974;SDS011;18500;43.618;1.474;2023-11-22T12:55:47;1061.45;;;956.63;;
31974;SDS011;18500;43.618;1.474;2023-11-22T12:58:17;1169.32;;;999.90;;
31974;SDS011;18500;43.618;1.474;2023-11-22T13:00:47;1068.53;;;957.70;;
31974;SDS011;18500;43.618;1.474;2023-11-22T13:03:14;1080.75;;;962.88;;
31974;SDS011;18500;43.618;1.474;2023-11-22T13:05:40;1082.68;;;975.25;;
31974;SDS011;18500;43.618;1.474;2023-11-22T13:08:10;1109.28;;;983.78;;
31974;SDS011;18500;43.618;1.474;2023-11-22T13:10:38;1187.25;;;999.90;;
31974;SDS011;18500;43.618;1.474;2023-11-22T13:13:05;1161.43;;;999.90;;
31974;SDS011;18500;43.618;1.474;2023-11-22T13:15:33;1169.80;;;996.67;;
31974;SDS011;18500;43.618;1.474;2023-11-22T13:17:59;1052.90;;;951.25;;
31974;SDS011;18500;43.618;1.474;2023-11-22T13:20:25;1130.70;;;984.42;;
31974;SDS011;18500;43.618;1.474;2023-11-22T13:22:54;1095.95;;;981.15;;
31974;SDS011;18500;43.618;1.474;2023-11-22T13:25:23;987.70;;;891.00;;
31974;SDS011;18500;43.618;1.474;2023-11-22T13:27:49;1163.10;;;999.90;;
31974;SDS011;18500;43.618;1.474;2023-11-22T13:30:17;1000.63;;;913.83;;
31974;SDS011;18500;43.618;1.474;2023-11-22T13:32:47;1155.38;;;999.90;;
31974;SDS011;18500;43.618;1.474;2023-11-22T13:35:17;1117.05;;;999.90;;
31974;SDS011;18500;43.618;1.474;2023-11-22T13:37:46;1178.00;;;999.90;;
31974;SDS011;18500;43.618;1.474;2023-11-22T13:40:16;1003.47;;;918.35;;
31974;SDS011;18500;43.618;1.474;2023-11-22T13:42:47;1044.28;;;948.92;;
31974;SDS011;18500;43.618;1.474;2023-11-22T13:45:15;1111.63;;;998.22;;
31974;SDS011;18500;43.618;1.474;2023-11-22T13:47:45;1046.65;;;949.90;;
31974;SDS011;18500;43.618;1.474;2023-11-22T13:50:15;1008.35;;;920.47;;
31974;SDS011;18500;43.618;1.474;2023-11-22T13:52:50;1001.38;;;910.85;;
31974;SDS011;18500;43.618;1.474;2023-11-22T13:55:17;971.20;;;889.65;;
31974;SDS011;18500;43.618;1.474;2023-11-22T13:57:48;970.78;;;888.47;;
31974;SDS011;18500;43.618;1.474;2023-11-22T14:00:18;994.25;;;914.58;;
31974;SDS011;18500;43.618;1.474;2023-11-22T14:02:51;1046.05;;;955.97;;
31974;SDS011;18500;43.618;1.474;2023-11-22T14:05:23;1092.57;;;976.17;;
31974;SDS011;18500;43.618;1.474;2023-11-22T14:07:53;1117.82;;;998.50;;
31974;SDS011;18500;43.618;1.474;2023-11-22T14:10:19;1053.60;;;958.67;;
31974;SDS011;18500;43.618;1.474;2023-11-22T14:12:47;901.42;;;831.40;;
31974;SDS011;18500;43.618;1.474;2023-11-22T14:15:16;1139.60;;;999.90;;
31974;SDS011;18500;43.618;1.474;2023-11-22T14:17:42;962.80;;;878.80;;
31974;SDS011;18500;43.618;1.474;2023-11-22T14:20:09;929.95;;;848.47;;
31974;SDS011;18500;43.618;1.474;2023-11-22T14:22:36;1172.63;;;999.90;;
31974;SDS011;18500;43.618;1.474;2023-11-22T14:25:02;1050.85;;;953.00;;
31974;SDS011;18500;43.618;1.474;2023-11-22T14:27:32;1167.07;;;999.90;;
31974;SDS011;18500;43.618;1.474;2023-11-22T14:29:58;1066.93;;;961.78;;
31974;SDS011;18500;43.618;1.474;2023-11-22T14:32:25;1066.28;;;966.28;;
31974;SDS011;18500;43.618;1.474;2023-11-22T14:34:50;975.25;;;892.60;;
31974;SDS011;18500;43.618;1.474;2023-11-22T14:37:18;1035.60;;;948.53;;
31974;SDS011;18500;43.618;1.474;2023-11-22T14:39:44;1169.72;;;999.90;;
31974;SDS011;18500;43.618;1.474;2023-11-22T14:42:10;950.38;;;872.45;;
31974;SDS011;18500;43.618;1.474;2023-11-22T14:44:36;1021.33;;;932.38;;
31974;SDS011;18500;43.618;1.474;2023-11-22T14:47:02;1043.93;;;947.85;;
31974;SDS011;18500;43.618;1.474;2023-11-22T14:49:34;1020.92;;;936.78;;
31974;SDS011;18500;43.618;1.474;2023-11-22T14:51:59;993.08;;;910.00;;
31974;SDS011;18500;43.618;1.474;2023-11-22T14:54:26;1001.97;;;918.78;;
31974;SDS011;18500;43.618;1.474;2023-11-22T14:56:52;971.35;;;890.88;;
31974;SDS011;18500;43.618;1.474;2023-11-22T14:59:20;1045.15;;;954.38;;
31974;SDS011;18500;43.618;1.474;2023-11-22T15:01:46;1014.30;;;931.05;;
31974;SDS011;18500;43.618;1.474;2023-11-22T15:04:13;980.28;;;902.00;;
31974;SDS011;18500;43.618;1.474;2023-11-22T15:06:40;1104.75;;;997.42;;
31974;SDS011;18500;43.618;1.474;2023-11-22T15:09:06;980.35;;;903.33;;
31974;SDS011;18500;43.618;1.474;2023-11-22T15:11:35;1076.18;;;977.78;;
31974;SDS011;18500;43.618;1.474;2023-11-22T15:14:02;967.15;;;892.80;;
31974;SDS011;18500;43.618;1.474;2023-11-22T15:16:28;1010.05;;;926.55;;
31974;SDS011;18500;43.618;1.474;2023-11-22T15:18:54;977.58;;;900.22;;
31974;SDS011;18500;43.618;1.474;2023-11-22T15:21:19;1016.95;;;933.20;;
31974;SDS011;18500;43.618;1.474;2023-11-22T15:23:45;999.67;;;919.75;;
31974;SDS011;18500;43.618;1.474;2023-11-22T15:26:12;915.55;;;847.28;;
31974;SDS011;18500;43.618;1.474;2023-11-22T15:28:37;1024.57;;;940.67;;
31974;SDS011;18500;43.618;1.474;2023-11-22T15:31:03;1072.35;;;978.20;;
31974;SDS011;18500;43.618;1.474;2023-11-22T15:33:29;966.28;;;891.20;;
31974;SDS011;18500;43.618;1.474;2023-11-22T15:35:54;1042.35;;;956.17;;
31974;SDS011;18500;43.618;1.474;2023-11-22T15:38:20;962.72;;;879.65;;
31974;SDS011;18500;43.618;1.474;2023-11-22T15:40:47;1053.38;;;954.00;;
31974;SDS011;18500;43.618;1.474;2023-11-22T15:43:14;1077.70;;;972.88;;
31974;SDS011;18500;43.618;1.474;2023-11-22T15:45:39;1056.32;;;952.17;;
31974;SDS011;18500;43.618;1.474;2023-11-22T15:48:07;1072.40;;;970.55;;
31974;SDS011;18500;43.618;1.474;2023-11-22T15:50:33;1088.43;;;984.85;;
31974;SDS011;18500;43.618;1.474;2023-11-22T15:52:59;1055.55;;;955.35;;
31974;SDS011;18500;43.618;1.474;2023-11-22T15:55:26;1085.38;;;970.28;;
31974;SDS011;18500;43.618;1.474;2023-11-22T15:57:53;1082.97;;;973.05;;
31974;SDS011;18500;43.618;1.474;2023-11-22T16:00:19;1183.85;;;999.90;;
31974;SDS011;18500;43.618;1.474;2023-11-22T16:02:46;1043.32;;;940.30;;
31974;SDS011;18500;43.618;1.474;2023-11-22T16:05:12;1008.45;;;916.90;;
31974;SDS011;18500;43.618;1.474;2023-11-22T16:07:38;1065.18;;;954.25;;
31974;SDS011;18500;43.618;1.474;2023-11-22T16:10:04;1059.15;;;944.78;;
31974;SDS011;18500;43.618;1.474;2023-11-22T16:12:33;1134.78;;;999.90;;
31974;SDS011;18500;43.618;1.474;2023-11-22T16:14:59;1137.82;;;999.90;;
31974;SDS011;18500;43.618;1.474;2023-11-22T16:17:26;1120.40;;;999.90;;
31974;SDS011;18500;43.618;1.474;2023-11-22T16:19:52;1131.18;;;999.90;;
31974;SDS011;18500;43.618;1.474;2023-11-22T16:22:17;1106.85;;;996.88;;
31974;SDS011;18500;43.618;1.474;2023-11-22T16:24:43;1102.32;;;997.42;;
31974;SDS011;18500;43.618;1.474;2023-11-22T16:27:10;1121.28;;;999.90;;
31974;SDS011;18500;43.618;1.474;2023-11-22T16:29:36;990.45;;;904.60;;
31974;SDS011;18500;43.618;1.474;2023-11-22T16:32:02;1041.22;;;945.53;;
31974;SDS011;18500;43.618;1.474;2023-11-22T16:34:28;982.33;;;889.92;;
31974;SDS011;18500;43.618;1.474;2023-11-22T16:36:54;993.05;;;903.75;;
31974;SDS011;18500;43.618;1.474;2023-11-22T16:39:19;999.03;;;911.28;;
31974;SDS011;18500;43.618;1.474;2023-11-22T16:41:47;1031.60;;;937.45;;
31974;SDS011;18500;43.618;1.474;2023-11-22T16:44:13;974.58;;;889.30;;
31974;SDS011;18500;43.618;1.474;2023-11-22T16:46:39;1033.60;;;940.65;;
31974;SDS011;18500;43.618;1.474;2023-11-22T16:49:07;1080.18;;;978.60;;
31974;SDS011;18500;43.618;1.474;2023-11-22T16:51:38;953.03;;;864.30;;
31974;SDS011;18500;43.618;1.474;2023-11-22T16:54:04;979.03;;;886.70;;
31974;SDS011;18500;43.618;1.474;2023-11-22T16:56:30;1112.57;;;999.50;;
31974;SDS011;18500;43.618;1.474;2023-11-22T16:58:55;1143.38;;;999.90;;
31974;SDS011;18500;43.618;1.474;2023-11-22T17:01:21;1084.32;;;975.88;;
31974;SDS011;18500;43.618;1.474;2023-11-22T17:03:47;1026.88;;;924.03;;
31974;SDS011;18500;43.618;1.474;2023-11-22T17:06:12;1041.88;;;933.53;;
31974;SDS011;18500;43.618;1.474;2023-11-22T17:08:38;1070.47;;;961.35;;
31974;SDS011;18500;43.618;1.474;2023-11-22T17:11:03;962.85;;;870.33;;
31974;SDS011;18500;43.618;1.474;2023-11-22T17:13:29;1014.72;;;908.33;;
31974;SDS011;18500;43.618;1.474;2023-11-22T17:15:55;947.97;;;854.53;;
31974;SDS011;18500;43.618;1.474;2023-11-22T17:18:21;967.53;;;869.72;;
31974;SDS011;18500;43.618;1.474;2023-11-22T17:20:47;1015.50;;;911.75;;
31974;SDS011;18500;43.618;1.474;2023-11-22T17:23:14;966.10;;;866.80;;
31974;SDS011;18500;43.618;1.474;2023-11-22T17:25:40;1029.88;;;926.00;;
31974;SDS011;18500;43.618;1.474;2023-11-22T17:28:05;1113.00;;;996.00;;
31974;SDS011;18500;43.618;1.474;2023-11-22T17:30:31;1054.45;;;945.58;;
31974;SDS011;18500;43.618;1.474;2023-11-22T17:32:58;1100.45;;;986.35;;
31974;SDS011;18500;43.618;1.474;2023-11-22T17:35:24;1081.05;;;973.00;;
31974;SDS011;18500;43.618;1.474;2023-11-22T17:37:50;1013.67;;;916.92;;
31974;SDS011;18500;43.618;1.474;2023-11-22T17:40:17;967.53;;;877.40;;
31974;SDS011;18500;43.618;1.474;2023-11-22T17:42:44;952.80;;;867.92;;
31974;SDS011;18500;43.618;1.474;2023-11-22T17:45:09;857.65;;;779.25;;
31974;SDS011;18500;43.618;1.474;2023-11-22T17:47:35;980.63;;;884.05;;
31974;SDS011;18500;43.618;1.474;2023-11-22T17:50:03;994.15;;;898.58;;
31974;SDS011;18500;43.618;1.474;2023-11-22T17:52:32;1053.13;;;946.67;;
31974;SDS011;18500;43.618;1.474;2023-11-22T17:54:59;1036.88;;;932.55;;
31974;SDS011;18500;43.618;1.474;2023-11-22T17:57:28;968.63;;;877.20;;
31974;SDS011;18500;43.618;1.474;2023-11-22T17:59:54;874.78;;;792.88;;
31974;SDS011;18500;43.618;1.474;2023-11-22T18:02:20;919.90;;;844.97;;
31974;SDS011;18500;43.618;1.474;2023-11-22T18:04:45;935.60;;;850.42;;
31974;SDS011;18500;43.618;1.474;2023-11-22T18:07:11;1077.85;;;966.88;;
31974;SDS011;18500;43.618;1.474;2023-11-22T18:09:37;1100.50;;;991.72;;
31974;SDS011;18500;43.618;1.474;2023-11-22T18:12:03;1089.85;;;981.83;;
31974;SDS011;18500;43.618;1.474;2023-11-22T18:14:35;1011.72;;;915.05;;
31974;SDS011;18500;43.618;1.474;2023-11-22T18:17:01;1040.35;;;941.42;;
31974;SDS011;18500;43.618;1.474;2023-11-22T18:19:27;1110.22;;;997.88;;
31974;SDS011;18500;43.618;1.474;2023-11-22T18:21:52;985.58;;;895.40;;
31974;SDS011;18500;43.618;1.474;2023-11-22T18:24:18;1092.90;;;989.63;;
31974;SDS011;18500;43.618;1.474;2023-11-22T18:26:46;1073.47;;;965.65;;
31974;SDS011;18500;43.618;1.474;2023-11-22T18:29:12;1037.45;;;937.05;;
31974;SDS011;18500;43.618;1.474;2023-11-22T18:31:40;1072.82;;;970.53;;
31974;SDS011;18500;43.618;1.474;2023-11-22T18:34:06;1118.57;;;999.90;;
31974;SDS011;18500;43.618;1.474;2023-11-22T18:36:32;1140.47;;;999.90;;
31974;SDS011;18500;43.618;1.474;2023-11-22T18:38:58;1122.10;;;997.92;;
31974;SDS011;18500;43.618;1.474;2023-11-22T18:41:24;1109.03;;;995.13;;
31974;SDS011;18500;43.618;1.474;2023-11-22T18:43:50;1070.93;;;967.90;;
31974;SDS011;18500;43.618;1.474;2023-11-22T18:46:15;1002.40;;;911.22;;
31974;SDS011;18500;43.618;1.474;2023-11-22T18:48:41;937.55;;;856.20;;
31974;SDS011;18500;43.618;1.474;2023-11-22T18:51:06;903.75;;;827.42;;
31974;SDS011;18500;43.618;1.474;2023-11-22T18:53:32;733.38;;;675.38;;
31974;SDS011;18500;43.618;1.474;2023-11-22T18:55:58;932.33;;;857.75;;
31974;SDS011;18500;43.618;1.474;2023-11-22T18:58:24;843.22;;;776.85;;
31974;SDS011;18500;43.618;1.474;2023-11-22T19:00:50;806.00;;;742.78;;
31974;SDS011;18500;43.618;1.474;2023-11-22T19:03:15;860.55;;;791.15;;
31974;SDS011;18500;43.618;1.474;2023-11-22T19:05:41;757.67;;;699.63;;
31974;SDS011;18500;43.618;1.474;2023-11-22T19:08:08;878.40;;;807.78;;
31974;SDS011;18500;43.618;1.474;2023-11-22T19:10:34;971.38;;;887.95;;
31974;SDS011;18500;43.618;1.474;2023-11-22T19:12:59;818.05;;;751.08;;
31974;SDS011;18500;43.618;1.474;2023-11-22T19:15:25;934.78;;;850.25;;
31974;SDS011;18500;43.618;1.474;2023-11-22T19:17:50;924.28;;;843.55;;
31974;SDS011;18500;43.618;1.474;2023-11-22T19:20:16;951.38;;;869.42;;
31974;SDS011;18500;43.618;1.474;2023-11-22T19:22:41;915.40;;;836.35;;
31974;SDS011;18500;43.618;1.474;2023-11-22T19:25:08;990.50;;;901.03;;
31974;SDS011;18500;43.618;1.474;2023-11-22T19:27:38;865.15;;;796.97;;
31974;SDS011;18500;43.618;1.474;2023-11-22T19:30:04;941.92;;;865.15;;
31974;SDS011;18500;43.618;1.474;2023-11-22T19:32:31;886.22;;;816.15;;
31974;SDS011;18500;43.618;1.474;2023-11-22T19:34:57;903.58;;;832.00;;
31974;SDS011;18500;43.618;1.474;2023-11-22T19:37:23;1115.57;;;999.90;;
31974;SDS011;18500;43.618;1.474;2023-11-22T19:39:53;1007.67;;;913.97;;
31974;SDS011;18500;43.618;1.474;2023-11-22T19:42:20;1094.32;;;984.78;;
31974;SDS011;18500;43.618;1.474;2023-11-22T19:44:46;934.30;;;854.28;;
31974;SDS011;18500;43.618;1.474;2023-11-22T19:47:12;952.42;;;872.78;;
31974;SDS011;18500;43.618;1.474;2023-11-22T19:49:37;999.83;;;910.40;;
31974;SDS011;18500;43.618;1.474;2023-11-22T19:52:04;954.08;;;867.33;;
31974;SDS011;18500;43.618;1.474;2023-11-22T19:54:30;830.40;;;764.78;;
31974;SDS011;18500;43.618;1.474;2023-11-22T19:56:56;826.92;;;762.38;;
31974;SDS011;18500;43.618;1.474;2023-11-22T19:59:21;909.50;;;834.00;;
31974;SDS011;18500;43.618;1.474;2023-11-22T20:01:47;877.13;;;807.25;;
31974;SDS011;18500;43.618;1.474;2023-11-22T20:04:13;874.70;;;807.65;;
31974;SDS011;18500;43.618;1.474;2023-11-22T20:06:40;882.25;;;812.85;;
31974;SDS011;18500;43.618;1.474;2023-11-22T20:09:05;832.00;;;762.65;;
31974;SDS011;18500;43.618;1.474;2023-11-22T20:11:31;985.67;;;904.67;;
31974;SDS011;18500;43.618;1.474;2023-11-22T20:13:56;947.83;;;869.20;;
31974;SDS011;18500;43.618;1.474;2023-11-22T20:16:22;683.53;;;634.47;;
31974;SDS011;18500;43.618;1.474;2023-11-22T20:18:48;813.03;;;749.47;;
31974;SDS011;18500;43.618;1.474;2023-11-22T20:21:15;899.05;;;821.78;;
31974;SDS011;18500;43.618;1.474;2023-11-22T20:23:41;739.10;;;679.40;;
31974;SDS011;18500;43.618;1.474;2023-11-22T20:26:06;967.70;;;876.97;;
31974;SDS011;18500;43.618;1.474;2023-11-22T20:28:32;741.75;;;684.53;;
31974;SDS011;18500;43.618;1.474;2023-11-22T20:30:59;664.47;;;613.40;;
31974;SDS011;18500;43.618;1.474;2023-11-22T20:33:25;534.65;;;497.83;;
31974;SDS011;18500;43.618;1.474;2023-11-22T20:35:51;654.58;;;606.05;;
31974;SDS011;18500;43.618;1.474;2023-11-22T20:38:18;809.33;;;746.67;;
31974;SDS011;18500;43.618;1.474;2023-11-22T20:40:44;960.50;;;879.13;;
31974;SDS011;18500;43.618;1.474;2023-11-22T20:43:10;829.08;;;762.83;;
31974;SDS011;18500;43.618;1.474;2023-11-22T20:45:35;639.70;;;596.72;;
31974;SDS011;18500;43.618;1.474;2023-11-22T20:48:01;675.65;;;624.10;;
31974;SDS011;18500;43.618;1.474;2023-11-22T20:50:26;842.35;;;779.30;;
31974;SDS011;18500;43.618;1.474;2023-11-22T20:52:52;864.85;;;794.22;;
31974;SDS011;18500;43.618;1.474;2023-11-22T20:55:19;866.55;;;799.55;;
31974;SDS011;18500;43.618;1.474;2023-11-22T20:57:44;1029.90;;;939.08;;
31974;SDS011;18500;43.618;1.474;2023-11-22T21:00:10;921.20;;;849.03;;
31974;SDS011;18500;43.618;1.474;2023-11-22T21:02:36;798.95;;;735.72;;
31974;SDS011;18500;43.618;1.474;2023-11-22T21:05:05;816.78;;;748.05;;
31974;SDS011;18500;43.618;1.474;2023-11-22T21:07:32;727.83;;;672.90;;
31974;SDS011;18500;43.618;1.474;2023-11-22T21:09:59;819.70;;;751.88;;
31974;SDS011;18500;43.618;1.474;2023-11-22T21:12:25;775.95;;;713.78;;
31974;SDS011;18500;43.618;1.474;2023-11-22T21:14:50;843.13;;;770.33;;
31974;SDS011;18500;43.618;1.474;2023-11-22T21:17:16;718.25;;;658.10;;